createdAt,value
2023-09-08T00:01:20.799Z,5.90
2023-09-08T00:06:28.546Z,5.90
2023-09-08T00:11:36.380Z,6.20
2023-09-08T00:16:45.186Z,5.80
2023-09-08T00:21:52.935Z,5.50
2023-09-08T00:27:00.667Z,6.30
2023-09-08T00:32:09.266Z,6.40
2023-09-08T00:37:17.038Z,5.70
2023-09-08T00:42:24.773Z,6.20
2023-09-08T00:47:33.023Z,6.40
2023-09-08T00:52:41.245Z,6.10
2023-09-08T00:57:49.044Z,6.90
2023-09-08T01:02:56.971Z,6.80
2023-09-08T01:08:05.931Z,7.50
2023-09-08T01:13:13.747Z,6.90
2023-09-08T01:18:21.997Z,6.20
2023-09-08T01:23:44.409Z,6.90
2023-09-08T01:28:54.235Z,7.10
2023-09-08T01:34:05.795Z,6.20
2023-09-08T01:39:13.548Z,6.70
2023-09-08T01:44:21.637Z,6.80
2023-09-08T01:49:29.442Z,6.90
2023-09-08T01:54:37.196Z,6.20
2023-09-08T01:59:45.939Z,6.30
2023-09-08T02:04:54.094Z,6.70
2023-09-08T02:10:01.883Z,6.80
2023-09-08T02:15:13.013Z,6.60
2023-09-08T02:20:21.758Z,6.60
2023-09-08T02:25:29.467Z,7.40
2023-09-08T02:30:38.209Z,7.80
2023-09-08T02:35:46.060Z,12.10
2023-09-08T02:40:54.131Z,14.30
2023-09-08T02:46:02.042Z,13.50
2023-09-08T02:51:10.475Z,14.90
2023-09-08T02:56:18.206Z,14.30
2023-09-08T03:01:26.060Z,13.20
2023-09-08T03:06:33.770Z,13.80
2023-09-08T03:11:41.542Z,13.30
2023-09-08T03:16:49.325Z,11.60
2023-09-08T03:21:57.524Z,12.60
2023-09-08T03:27:05.727Z,10.10
2023-09-08T03:32:13.699Z,9.20
2023-09-08T03:37:21.582Z,9.10
2023-09-08T03:42:29.321Z,7.90
2023-09-08T03:47:37.173Z,7.50
2023-09-08T03:52:45.200Z,7.30
2023-09-08T03:57:52.897Z,8.00
2023-09-08T04:03:00.923Z,8.60
2023-09-08T04:08:09.406Z,9.20
2023-09-08T04:13:17.173Z,9.10
2023-09-08T04:18:24.982Z,9.70
2023-09-08T04:23:33.307Z,8.10
2023-09-08T04:28:41.336Z,8.90
2023-09-08T04:33:49.154Z,10.20
2023-09-08T04:38:57.165Z,8.80
2023-09-08T04:44:05.026Z,9.80
2023-09-08T04:49:13.122Z,9.60
2023-09-08T04:54:22.380Z,9.80
2023-09-08T04:59:30.135Z,9.20
2023-09-08T05:04:37.848Z,9.20
2023-09-08T05:09:45.964Z,10.20
2023-09-08T05:14:57.748Z,9.50
2023-09-08T05:20:05.922Z,10.30
2023-09-08T05:25:14.186Z,10.00
2023-09-08T05:30:21.973Z,10.40
2023-09-08T05:35:29.729Z,11.50
2023-09-08T05:40:37.967Z,12.40
2023-09-08T05:45:45.690Z,12.20
2023-09-08T05:50:53.500Z,12.60
2023-09-08T05:56:01.350Z,11.90
2023-09-08T06:01:10.165Z,13.00
2023-09-08T06:06:17.865Z,12.40
2023-09-08T06:11:25.579Z,12.90
2023-09-08T06:16:33.326Z,12.40
2023-09-08T06:21:41.128Z,13.30
2023-09-08T06:26:51.140Z,12.60
2023-09-08T06:31:58.979Z,12.20
2023-09-08T06:37:07.117Z,12.00
2023-09-08T06:42:14.807Z,9.90
2023-09-08T06:47:22.617Z,9.50
2023-09-08T06:52:30.377Z,9.70
2023-09-08T06:57:38.105Z,10.30
2023-09-08T07:02:46.069Z,9.60
2023-09-08T07:07:53.906Z,8.50
2023-09-08T07:13:01.983Z,9.80
2023-09-08T07:18:10.248Z,8.50
2023-09-08T07:23:18.288Z,9.30
2023-09-08T07:28:26.123Z,7.70
2023-09-08T07:33:34.017Z,7.90
2023-09-08T07:38:41.827Z,7.30
2023-09-08T07:43:49.749Z,7.60
2023-09-08T07:48:57.844Z,6.60
2023-09-08T07:54:05.779Z,5.90
2023-09-08T07:59:13.684Z,6.80
2023-09-08T08:04:21.595Z,5.30
2023-09-08T08:09:29.394Z,5.70
2023-09-08T08:14:37.653Z,6.40
2023-09-08T08:19:45.347Z,6.40
2023-09-08T08:24:53.236Z,5.30
2023-09-08T08:30:02.466Z,5.40
2023-09-08T08:35:11.244Z,6.50
2023-09-08T08:40:19.139Z,6.60
2023-09-08T08:45:28.586Z,5.40
2023-09-08T08:50:38.158Z,4.80
2023-09-08T08:55:46.970Z,5.00
2023-09-08T09:00:56.435Z,4.40
2023-09-08T09:06:05.143Z,5.50
2023-09-08T09:11:13.320Z,4.90
2023-09-08T09:16:21.474Z,4.80
2023-09-08T09:21:47.435Z,5.20
2023-09-08T09:26:58.039Z,5.10
2023-09-08T09:32:09.311Z,3.60
2023-09-08T09:37:17.102Z,4.80
2023-09-08T09:42:25.278Z,4.70
2023-09-08T09:47:33.288Z,4.30
2023-09-08T09:52:42.468Z,4.70
2023-09-08T09:57:52.586Z,5.20
2023-09-08T10:03:01.200Z,5.30
2023-09-08T10:08:09.788Z,4.80
2023-09-08T10:13:24.052Z,4.60
2023-09-08T10:18:36.048Z,4.30
2023-09-08T10:23:45.956Z,4.20
2023-09-08T10:28:57.034Z,3.90
2023-09-08T10:34:05.873Z,3.70
2023-09-08T10:39:36.983Z,4.00
2023-09-08T10:44:45.577Z,3.90
2023-09-08T10:49:58.822Z,3.90
2023-09-08T10:55:09.182Z,3.40
2023-09-08T11:00:21.817Z,3.70
2023-09-08T11:05:29.702Z,4.30
2023-09-08T11:10:38.887Z,4.00
2023-09-08T11:15:46.622Z,3.80
2023-09-08T11:20:56.945Z,3.60
2023-09-08T11:26:05.568Z,3.70
2023-09-08T11:31:14.991Z,3.40
2023-09-08T11:36:22.840Z,3.30
2023-09-08T11:41:31.753Z,3.50
2023-09-08T11:46:39.960Z,3.30
2023-09-08T11:51:48.200Z,3.50
2023-09-08T11:56:56.333Z,2.40
2023-09-08T12:02:04.458Z,3.40
2023-09-08T12:07:17.464Z,3.10
2023-09-08T12:12:25.287Z,3.30
2023-09-08T12:17:33.109Z,2.90
2023-09-08T12:22:49.220Z,3.60
2023-09-08T12:27:57.343Z,3.10
2023-09-08T12:33:06.512Z,2.70
2023-09-08T12:38:15.328Z,3.50
2023-09-08T12:43:27.293Z,3.10
2023-09-08T12:48:36.570Z,4.00
2023-09-08T12:53:44.395Z,3.40
2023-09-08T12:58:52.147Z,3.50
2023-09-08T13:04:00.520Z,3.70
2023-09-08T13:09:09.612Z,3.30
2023-09-08T13:14:17.335Z,3.70
2023-09-08T13:19:25.140Z,3.60
2023-09-08T13:24:33.162Z,3.20
2023-09-08T13:29:41.495Z,3.50
2023-09-08T13:34:49.555Z,3.80
2023-09-08T13:39:57.525Z,4.20
2023-09-08T13:45:06.263Z,3.10
2023-09-08T13:50:14.684Z,3.60
2023-09-08T13:55:36.725Z,3.90
2023-09-08T14:00:47.165Z,3.40
2023-09-08T14:06:02.750Z,3.60
2023-09-08T14:11:15.799Z,3.60
2023-09-08T14:16:32.901Z,4.20
2023-09-08T14:21:41.211Z,5.10
2023-09-08T14:26:49.046Z,3.90
2023-09-08T14:31:56.858Z,4.00
2023-09-08T14:37:05.743Z,3.40
2023-09-08T14:42:15.427Z,3.40
2023-09-08T14:47:23.240Z,3.60
2023-09-08T14:52:30.965Z,3.50
2023-09-08T14:57:38.938Z,3.20
2023-09-08T15:02:47.474Z,3.80
2023-09-08T15:07:55.290Z,3.70
2023-09-08T15:13:03.277Z,3.10
2023-09-08T15:18:11.154Z,3.50
2023-09-08T15:23:19.005Z,4.70
2023-09-08T15:28:27.310Z,3.60
2023-09-08T15:33:35.397Z,3.70
2023-09-08T15:38:43.540Z,3.50
2023-09-08T15:43:53.334Z,3.40
2023-09-08T15:49:01.182Z,3.40
2023-09-08T15:54:09.470Z,3.50
2023-09-08T15:59:18.201Z,3.40
2023-09-08T16:04:26.196Z,3.60
2023-09-08T16:09:34.013Z,3.60
2023-09-08T16:14:41.779Z,4.30
2023-09-08T16:19:49.659Z,4.10
2023-09-08T16:24:57.388Z,4.00
2023-09-08T16:30:05.837Z,4.00
2023-09-08T16:35:13.710Z,4.10
2023-09-08T16:40:23.534Z,4.20
2023-09-08T16:45:31.425Z,4.20
2023-09-08T16:50:39.219Z,4.70
2023-09-08T16:55:47.054Z,3.90
2023-09-08T17:00:54.819Z,3.90
2023-09-08T17:06:02.725Z,4.20
2023-09-08T17:11:11.576Z,4.40
2023-09-08T17:16:19.352Z,4.40
2023-09-08T17:21:28.879Z,4.10
2023-09-08T17:26:36.635Z,5.40
2023-09-08T17:31:44.709Z,5.00
2023-09-08T17:36:56.979Z,6.80
2023-09-08T17:42:04.997Z,9.60
2023-09-08T17:47:12.751Z,12.90
2023-09-08T17:52:20.645Z,14.10
2023-09-08T17:57:28.444Z,10.70
2023-09-08T18:02:36.786Z,6.20
2023-09-08T18:07:46.121Z,5.60
2023-09-08T18:12:53.997Z,5.40
2023-09-08T18:18:02.052Z,6.00
2023-09-08T18:23:10.163Z,5.80
2023-09-08T18:28:19.034Z,5.20
2023-09-08T18:33:27.161Z,5.40
2023-09-08T18:38:35.670Z,5.40
2023-09-08T18:43:43.411Z,5.80
2023-09-08T18:48:51.291Z,13.20
2023-09-08T18:53:59.035Z,17.70
2023-09-08T18:59:07.130Z,14.30
2023-09-08T19:04:15.235Z,10.20
2023-09-08T19:09:23.343Z,8.40
2023-09-08T19:14:31.388Z,7.20
2023-09-08T19:19:39.094Z,8.40
2023-09-08T19:24:48.934Z,15.90
2023-09-08T19:29:56.920Z,21.70
2023-09-08T19:35:04.872Z,19.50
2023-09-08T19:40:13.247Z,10.00
2023-09-08T19:45:21.826Z,7.90
2023-09-08T19:50:29.778Z,7.90
2023-09-08T19:55:38.478Z,6.10
2023-09-08T20:00:46.168Z,5.50
2023-09-08T20:05:55.030Z,4.90
2023-09-08T20:11:04.108Z,5.50
2023-09-08T20:16:12.162Z,5.90
2023-09-08T20:21:19.988Z,6.50
2023-09-08T20:26:27.808Z,5.30
2023-09-08T20:31:35.518Z,5.40
2023-09-08T20:36:43.239Z,5.20
2023-09-08T20:41:51.061Z,6.50
2023-09-08T20:46:59.191Z,5.60
2023-09-08T20:52:12.839Z,5.50
2023-09-08T20:57:20.656Z,5.90
2023-09-08T21:02:28.453Z,6.20
2023-09-08T21:07:36.162Z,5.70
2023-09-08T21:12:43.899Z,5.60
2023-09-08T21:17:51.741Z,5.40
2023-09-08T21:23:02.908Z,6.20
2023-09-08T21:28:10.801Z,6.60
2023-09-08T21:33:21.830Z,6.20
2023-09-08T21:38:29.737Z,7.30
2023-09-08T21:43:38.021Z,7.30
2023-09-08T21:48:46.105Z,6.70
2023-09-08T21:53:53.983Z,6.00
2023-09-08T21:59:01.743Z,6.80
2023-09-08T22:04:10.248Z,7.50
2023-09-08T22:09:19.966Z,7.70
2023-09-08T22:14:28.701Z,6.70
2023-09-08T22:19:36.449Z,7.50
2023-09-08T22:24:44.176Z,8.20
2023-09-08T22:29:51.929Z,8.80
2023-09-08T22:34:59.797Z,8.00
2023-09-08T22:40:10.406Z,8.20
2023-09-08T22:45:18.535Z,8.30
2023-09-08T22:50:27.419Z,8.30
2023-09-08T22:55:35.255Z,8.00
2023-09-08T23:00:43.139Z,7.50
2023-09-08T23:05:51.400Z,8.40
2023-09-08T23:10:59.108Z,8.50
2023-09-08T23:16:07.201Z,8.10
2023-09-08T23:21:14.973Z,8.10
2023-09-08T23:26:22.907Z,6.80
2023-09-08T23:31:30.657Z,7.90
2023-09-08T23:36:38.412Z,7.10
2023-09-08T23:41:47.324Z,7.00
2023-09-08T23:46:55.219Z,6.80
2023-09-08T23:52:03.125Z,7.60
2023-09-08T23:57:10.904Z,7.80
